Willow Run Airport
KYIP : now visible

Airfield :











YOU CAN JOIN US ON...

 
LOGIN :

Register | Disclaimer

   EN    FR    IT 

 









Legend :    VFR   Marginal VFR   IFR   Intensive IFR   Very Intensive IFR
Visi :
Ceiling :
>= 8 km
>= 3000ft
5 to 8 km
1000 to 3000 ft
1500m to 5 km
500 to 1000 ft
800 to 1500m
200 to 500 ft
< 800m
< 200 ft
Symbols :   Thunderstorms  Fog  Heavy snow  Heavy precipitations  Wind > 20 kt






- Airport Elevation : 716 ft
- IATA code : YIP


KYIP - Willow Run

CURRENT METAR :
  • 171153Z 31012KT 10SM BKN031 06/02 A2988 RMK AO2 SLP118 70001 T00610022 10089 20061 51015

EXPIRED METARs :
  • 171053Z 31013KT 10SM OVC032 07/02 A2986 RMK AO2 SLP112 T00720022
  • 170953Z 30013G20KT 10SM OVC033 07/02 A2985 RMK AO2 SLP109 T00720022

TAF KYIP
Valid from the 17 at 12:00 until the 18 at 12:00 UTC


171120Z 1712/1812 31012G20KT P6SM BKN035
TEMPO 1712/1716 SCT035
FM171600 30014G22KT P6SM BKN045
FM172300 32008KT P6SM BKN040
FM180400 31004KT P6SM SKC



MET'MAP, your aeronautical weather chart ! - Copyright ORBIFLY December 2007 - Disclaimer

ORBIFLY MET'MAP TEAM :

Programming & Development : Alexandra Zaïnal
Concept & Development : Baudouin d'Aumeries
Co-Development & Prog : Marc-Olivier Méhu
Technical & hardware support : Manuel Goepfert

Contact : metmap@orbifly.com




SOURCES & CREDITS :

   NOAA       Earth
Advisory